6hr Temperature Data

Temp.
(°C)
Wind Chill
(°C)
Dew Point
(°C)
Solar Hours
(hh:mm)
Solar Radiation
(w/m2)
Min
0.4 -6.7 -5.5 00:00 0.0
Max
8.5 17.4 3.9 05:13 190.0
Range
8.1 24.1 9.4 n/a 190
Mode
1.2 -6 -4.5 00:00 0.0
Median
1.5 -5.5 -4 00:00 10.0
Mean
3 -0.1 -2.2 n/a 20.9
Std. Dev
2.5 7.7 2.9 n/a 29.7
Temp.
(°C)
Wind Chill
(°C)
Dew Point
(°C)
Solar Hours
(hh:mm)
Solar Radiation
(w/m2)
09/03 15:59 5.9 9.8 3.9 00:00 28.0
09/03 15:58 5.9 9.8 3.9 00:00 28.0
09/03 15:57 5.9 9.8 3.9 00:00 30.0
09/03 15:56 5.9 9.8 3.9 00:00 30.0
09/03 13:47 5.8 7.3 3.9 00:00 28.0
09/03 13:46 5.8 7.3 3.9 00:00 26.0
09/03 13:45 5.8 7.3 3.9 00:00 26.0
09/03 13:44 5.8 7.3 3.9 00:00 30.0
09/03 13:43 5.8 7.8 3.9 00:00 36.0
09/03 13:01 5.8 8.2 3.9 00:00 38.0
09/03 13:00 5.8 8.2 3.9 00:00 42.0
09/03 12:59 5.8 8.2 3.9 00:00 44.0
09/03 12:58 5.8 8.2 3.9 00:00 40.0
09/03 12:57 5.8 8.6 3.9 00:00 40.0
09/03 12:34 5.7 9.1 3.8 00:08 40.0
09/03 12:33 5.7 9.1 3.8 00:08 42.0
09/03 12:32 5.7 9.1 3.8 00:08 44.0
09/03 12:31 5.7 9.1 3.8 00:08 46.0
09/03 11:46 5.4 16.5 3 00:08 26.0
09/03 11:45 5.4 16.5 3 00:08 28.0
09/03 11:44 5.4 16.5 3 00:08 30.0
09/03 11:43 5.4 16.5 3 00:08 32.0
09/03 11:42 5.4 16.5 3 00:08 34.0
09/03 08:46 3.6 8.5 0.8 00:00 38.0
09/03 08:45 3.6 8.5 0.8 00:00 40.0
09/03 08:44 3.6 8.5 0.8 00:00 38.0
09/03 08:43 3.6 8.5 0.8 00:00 38.0
09/03 08:42 3.7 15.4 0.9 00:00 38.0
09/03 05:41 3.5 5.3 0.2 00:00 0.0
09/03 05:40 3.5 5.3 0.2 00:00 0.0
09/03 05:39 3.5 5.3 0.2 00:00 0.0
09/03 05:38 3.5 5.3 0.2 00:00 0.0
09/03 05:37 3.5 5.3 0.2 00:00 0.0
09/03 05:36 3.5 5.3 0.2 00:00 0.0
09/03 04:23 3.5 5.7 1 00:00 0.0
09/03 04:22 3.5 5.7 1 00:00 0.0
09/03 04:21 3.5 5.7 1 00:00 0.0
09/03 04:20 3.5 5.7 1 00:00 0.0
08/03 23:05 6.2 8.6 1.1 00:09 0.0
08/03 23:04 6.2 8.6 1.1 00:09 0.0
08/03 23:03 6.2 8.6 1.1 00:09 0.0
08/03 23:02 6.2 8.6 1.1 00:09 0.0
08/03 23:01 6.2 9.3 1.1 00:09 0.0
08/03 22:15 6.4 9.8 1.3 00:09 0.0
08/03 22:14 6.4 9.8 1.3 00:09 0.0
08/03 22:13 6.4 9.8 1.3 00:09 0.0
08/03 22:12 6.4 9.8 1.3 00:09 0.0
08/03 22:11 6.4 10.3 1.3 00:09 0.0
08/03 18:03 8.2 12.6 2.4 00:09 6.0
08/03 18:02 8.2 12.6 2.4 00:09 6.0
08/03 18:01 8.2 12.6 2.4 00:09 8.0
08/03 18:00 8.2 12.6 2.4 00:09 8.0
08/03 13:18 6.9 17.4 1.5 00:17 190.0
08/03 13:17 6.9 17.4 1.5 00:16 102.0
08/03 13:16 6.9 17.4 1.5 00:16 82.0
08/03 13:15 6.9 17.4 1.5 00:16 94.0
08/03 12:12 5.8 5.4 1.3 00:18 68.0
08/03 12:11 5.8 5.4 1.3 00:18 64.0
08/03 12:10 5.8 5.4 1.3 00:18 62.0
08/03 12:09 5.8 5.4 1.3 00:18 62.0
08/03 06:47 3.4 2.9 -0.3 00:00 0.0
08/03 06:46 3.4 2.9 -0.3 00:00 0.0
08/03 06:45 3.4 2.9 -0.3 00:00 0.0
08/03 06:44 3.4 2.9 -0.3 00:00 0.0
08/03 06:43 3.4 3.1 -0.3 00:00 0.0
08/03 00:26 4.4 4.3 -0.3 00:00 0.0
08/03 00:25 4.4 4.3 -0.3 00:00 0.0
08/03 00:24 4.4 4.3 -0.3 00:00 0.0
08/03 00:23 4.4 4.3 -0.3 00:00 0.0
08/03 00:22 4.4 4.3 -0.3 00:00 0.0
07/03 23:24 4.5 4.4 -0.2 05:13 0.0
07/03 23:23 4.5 4.4 -0.2 05:13 0.0
07/03 23:22 4.5 4.4 -0.2 05:13 0.0
07/03 23:21 4.5 4.4 -0.2 05:13 0.0
07/03 18:10 6.7 6.9 -0.6 05:13 0.0
07/03 18:09 6.7 6.9 -0.6 05:13 0.0
07/03 18:08 6.7 6.9 -0.6 05:13 0.0
07/03 18:07 6.7 6.9 -0.6 05:13 0.0
07/03 17:28 7.2 7.4 -0.6 05:13 30.0
07/03 17:27 7.2 7.4 -0.6 05:13 30.0
07/03 17:26 7.2 7.4 -0.6 05:13 30.0
07/03 17:25 7.2 7.4 -0.6 05:13 30.0
07/03 14:04 8.3 8.8 -0.8 04:08 166.0
07/03 14:03 8.3 8.8 -0.8 04:07 172.0
07/03 14:02 8.3 8.8 -0.8 04:06 164.0
07/03 14:01 8.3 8.8 -0.8 04:05 118.0
07/03 13:59 8.5 9.1 -0.9 04:05 66.0
07/03 13:58 8.5 9.1 -0.9 04:05 58.0
07/03 13:57 8.5 9.1 -0.9 04:05 54.0
07/03 13:56 8.5 9.1 -0.9 04:05 54.0
07/03 09:53 6.7 7.5 0.5 00:34 126.0
07/03 09:52 6.7 7.5 0.5 00:33 128.0
07/03 09:51 6.7 7.5 0.5 00:32 132.0
07/03 09:50 6.7 7.5 0.5 00:31 136.0
07/03 09:10 6.0 7.2 0.7 00:00 112.0
07/03 09:09 6.0 7.2 0.7 00:00 112.0
07/03 09:08 6.0 7.2 0.7 00:00 110.0
07/03 09:07 6.0 7.2 0.7 00:00 110.0
07/03 04:12 5.6 6.8 0.3 00:00 0.0
07/03 04:11 5.6 6.8 0.3 00:00 0.0
07/03 04:10 5.6 6.8 0.3 00:00 0.0
07/03 04:09 5.6 6.8 0.3 00:00 0.0
07/03 03:27 5.6 7.1 1.5 00:00 0.0
07/03 03:26 5.6 7.1 1.5 00:00 0.0
07/03 03:25 5.6 7.1 1.5 00:00 0.0
07/03 03:24 5.6 7.1 1.5 00:00 0.0
07/03 03:23 5.6 7.5 1.5 00:00 0.0
07/03 03:22 5.6 7.8 1.5 00:00 0.0
06/03 22:31 5.9 8.7 1.2 00:05 0.0
06/03 22:30 5.9 8.7 1.2 00:05 0.0
06/03 22:29 5.9 8.7 1.2 00:05 0.0
06/03 22:28 5.9 8.7 1.2 00:05 0.0
06/03 21:41 5.4 8.2 -0.1 00:05 0.0
06/03 21:40 5.4 8.2 -0.1 00:05 0.0
06/03 21:39 5.4 8.2 -0.1 00:05 0.0
06/03 21:38 5.4 8.2 -0.1 00:05 0.0
06/03 17:15 7.6 10.6 0.5 00:05 12.0
06/03 17:14 7.6 10.6 0.5 00:05 12.0
06/03 17:13 7.6 10.6 0.5 00:05 12.0
06/03 17:12 7.6 10.6 0.5 00:05 14.0
06/03 16:34 7.4 10.8 -0.2 00:05 18.0
06/03 16:33 7.4 10.8 -0.2 00:05 18.0
06/03 16:32 7.4 10.8 -0.2 00:05 20.0
06/03 16:31 7.4 10.8 -0.2 00:05 20.0
06/03 12:52 7.0 10.8 2 00:03 76.0
06/03 12:51 7.0 10.8 2 00:03 76.0
06/03 12:50 7.0 10.8 2 00:03 76.0
06/03 12:49 7.0 10.8 2 00:03 76.0
06/03 12:12 6.8 11.3 0.6 00:03 66.0
06/03 12:11 6.8 11.3 0.6 00:03 70.0
06/03 12:10 6.8 11.3 0.6 00:03 76.0
06/03 12:09 6.8 11.3 0.6 00:03 82.0
06/03 12:08 6.8 17.3 0.8 00:03 86.0
05/03 15:07 6.0 16.8 3.5 00:39 30.0
05/03 15:06 6.0 16.8 3.5 00:39 30.0
05/03 15:05 6.0 16.8 3.5 00:39 32.0
05/03 15:04 6.0 16.8 3.5 00:39 32.0
05/03 14:23 6.2 17 3.8 00:39 58.0
05/03 14:22 6.2 17 3.8 00:39 56.0
05/03 14:21 6.2 17 3.8 00:39 56.0
05/03 14:20 6.2 17 3.8 00:39 56.0
01/03 18:13 1.0 -6.1 -2.5 00:00 0.0
01/03 17:32 1.6 -5.6 -4.3 00:00 0.0
01/03 17:22 1.5 -5.6 -4.9 00:00 0.0
01/03 17:17 1.6 -5.3 -4.3 00:00 0.0
01/03 17:16 1.6 -5.2 -4.6 00:00 0.0
01/03 17:15 1.7 -5.1 -3.8 00:00 0.0
01/03 17:14 1.7 -5.1 -3.8 00:00 0.0
01/03 17:13 1.7 -5.1 -3.6 00:00 0.0
01/03 17:12 1.6 -5.2 -3.7 00:00 0.0
01/03 17:11 1.6 -5.2 -3.5 00:00 0.0
01/03 17:10 1.5 -5.4 -3.8 00:00 0.0
01/03 17:09 1.5 -5.4 -4 00:00 0.0
01/03 17:08 1.5 -5.4 -3.8 00:00 0.0
01/03 17:07 1.5 -5.4 -3.4 00:00 0.0
01/03 17:06 1.5 -5.4 -3.8 00:00 0.0
01/03 17:05 1.4 -5.5 -3.7 00:00 0.0
01/03 17:04 1.5 -5.4 -3.8 00:00 0.0
01/03 17:03 1.5 -5.4 -3.8 00:00 0.0
01/03 17:02 1.5 -5.4 -3.8 00:00 0.0
01/03 17:00 1.5 -5.4 -3.8 00:00 0.0
01/03 16:59 1.5 -5.4 -4.2 00:00 0.0
01/03 16:58 1.5 -5.4 -4 00:00 0.0
01/03 16:57 1.7 -5.1 -3.6 00:00 0.0
01/03 16:56 1.7 -5.1 -3.4 00:00 0.0
01/03 16:55 1.6 -5.3 -3.9 00:00 0.0
01/03 16:54 1.5 -5.5 -4 00:00 0.0
01/03 16:53 1.6 -5.3 -3.9 00:00 0.0
01/03 16:52 1.6 -5.3 -3.7 00:00 0.0
01/03 16:51 1.6 -5.3 -3.9 00:00 4.0
01/03 16:50 1.5 -5.5 -4.2 00:00 4.0
01/03 16:49 1.5 -5.5 -4 00:00 4.0
01/03 16:48 1.4 -5.7 -4.5 00:00 4.0
01/03 16:47 1.4 -5.6 -4.7 00:00 4.0
01/03 16:46 1.4 -5.6 -4.7 00:00 4.0
01/03 16:45 1.5 -5.5 -4.4 00:00 4.0
01/03 16:44 1.5 -5.5 -4 00:00 4.0
01/03 16:43 1.5 -5.5 -4.2 00:00 0.0
01/03 16:42 1.4 -5.7 -4.3 00:00 4.0
01/03 16:41 1.5 -5.6 -4.4 00:00 4.0
01/03 16:40 1.5 -5.6 -4.4 00:00 4.0
01/03 16:39 1.5 -5.6 -4.4 00:00 4.0
01/03 16:38 1.6 -5.4 -4.1 00:00 4.0
01/03 16:37 1.6 -5.4 -3.7 00:00 4.0
01/03 16:36 1.6 -5.5 -3.9 00:00 4.0
01/03 16:35 1.5 -5.6 -4.2 00:00 4.0
01/03 16:34 1.6 -5.4 -4.1 00:00 4.0
01/03 16:33 1.5 -5.6 -4 00:00 4.0
01/03 16:32 1.4 -5.8 -4.7 00:00 4.0
01/03 16:31 1.4 -5.8 -5.2 00:00 4.0
01/03 16:30 1.4 -5.8 -5.2 00:00 4.0
01/03 16:29 1.4 -5.8 -5 00:00 4.0
01/03 16:28 1.4 -5.8 -4.3 00:00 4.0
01/03 16:27 1.4 -5.9 -4.5 00:00 4.0
01/03 16:26 1.4 -5.9 -4.5 00:00 4.0
01/03 16:25 1.4 -5.8 -4.5 00:00 6.0
01/03 16:24 1.4 -5.7 -4.3 00:00 6.0
01/03 16:23 1.3 -5.9 -4.6 00:00 6.0
01/03 16:22 1.4 -5.7 -4.7 00:00 6.0
01/03 16:21 1.3 -5.8 -5.1 00:00 4.0
01/03 16:20 1.4 -5.6 -5.2 00:00 4.0
01/03 16:18 1.4 -5.5 -5 00:00 6.0
01/03 16:17 1.3 -5.6 -5.3 00:00 6.0
01/03 16:16 1.4 -5.5 -5.2 00:00 6.0
01/03 16:15 1.5 -5.3 -3.8 00:00 4.0
01/03 16:14 1.4 -5.5 -3.7 00:00 4.0
01/03 16:13 1.3 -5.7 -4 00:00 4.0
01/03 16:12 1.3 -5.8 -4.2 00:00 4.0
01/03 16:11 1.4 -5.7 -4.1 00:00 4.0
01/03 16:10 1.4 -5.7 -4.5 00:00 4.0
01/03 16:09 1.5 -5.5 -4.4 00:00 6.0
01/03 16:08 1.6 -5.4 -3.9 00:00 8.0
01/03 16:07 1.5 -5.6 -3.8 00:00 8.0
01/03 16:06 1.4 -5.7 -4.1 00:00 8.0
01/03 16:05 1.3 -5.9 -4.6 00:00 6.0
01/03 16:04 1.3 -5.9 -4.6 00:00 6.0
01/03 16:03 1.2 -6 -4.5 00:00 6.0
01/03 16:02 1.2 -6 -4.7 00:00 6.0
01/03 16:01 1.3 -5.9 -4.2 00:00 6.0
01/03 16:00 1.2 -6 -4.9 00:00 8.0
01/03 15:59 1.4 -5.7 -4.3 00:00 8.0
01/03 15:58 1.3 -5.8 -4.2 00:00 6.0
01/03 15:57 1.2 -6 -4.5 00:00 6.0
01/03 15:56 1.2 -6 -4.5 00:00 6.0
01/03 15:55 1.2 -6 -4.7 00:00 6.0
01/03 15:54 1.2 -5.9 -4.9 00:00 6.0
01/03 15:53 1.2 -5.9 -4.5 00:00 6.0
01/03 15:52 1.1 -6.1 -5 00:00 6.0
01/03 15:51 1.1 -6 -5 00:00 6.0
01/03 15:50 1.2 -5.9 -4.5 00:00 8.0
01/03 15:49 1.2 -5.9 -4.5 00:00 8.0
01/03 15:48 1.2 -5.9 -4.3 00:00 8.0
01/03 15:47 1.1 -6.1 -4.8 00:00 8.0
01/03 15:46 1.3 -5.8 -4.4 00:00 8.0
01/03 15:45 1.3 -5.8 -4 00:00 8.0
01/03 15:44 1.2 -6 -4.3 00:00 8.0
01/03 15:43 1.2 -6 -4.5 00:00 6.0
01/03 15:42 1.2 -6 -4.7 00:00 8.0
01/03 15:41 1.2 -6 -4.5 00:00 8.0
01/03 15:40 1.2 -6 -4.3 00:00 8.0
01/03 15:39 1.1 -6.2 -4.8 00:00 6.0
01/03 15:38 1.1 -6.2 -4.8 00:00 6.0
01/03 15:37 1.2 -6 -4.5 00:00 6.0
01/03 15:36 1.3 -5.9 -4.2 00:00 6.0
01/03 15:35 1.2 -6.1 -4.3 00:00 6.0
01/03 15:34 1.1 -6.2 -4.6 00:00 8.0
01/03 15:33 1.1 -6.2 -5 00:00 10.0
01/03 15:32 1.1 -6.2 -4.8 00:00 10.0
01/03 15:30 1.1 -6.1 -4.6 00:00 8.0
01/03 15:29 1.0 -6.3 -4.9 00:00 8.0
01/03 15:28 1.0 -6.3 -5.1 00:00 8.0
01/03 15:27 1.1 -6.1 -5 00:00 6.0
01/03 15:26 1.2 -6 -4.5 00:00 8.0
01/03 15:25 1.2 -5.9 -4.7 00:00 6.0
01/03 15:24 1.3 -5.8 -4.2 00:00 6.0
01/03 15:23 1.2 -5.9 -4.1 00:00 6.0
01/03 15:22 1.2 -6 -4.7 00:00 6.0
01/03 15:21 1.2 -6 -4.3 00:00 6.0
01/03 15:19 1.1 -6.2 -4.6 00:00 6.0
01/03 15:16 1.3 -5.9 -4 00:00 6.0
01/03 15:13 1.1 -6.2 -4.4 00:00 8.0
01/03 15:04 1.0 -6.2 -4.7 00:00 10.0
01/03 14:34 1.0 -6.1 -4.5 00:00 14.0
01/03 14:13 0.9 -6.2 -4.2 00:00 8.0
01/03 14:10 1.1 -5.8 -4 00:00 18.0
01/03 14:06 1.2 -5.7 -4.9 00:00 16.0
01/03 14:05 1.2 -5.7 -4.3 00:00 14.0
01/03 14:04 1.2 -5.7 -4.9 00:00 14.0
01/03 14:03 1.2 -5.7 -5.1 00:00 18.0
01/03 14:02 1.4 -5.5 -4.5 00:00 20.0
01/03 14:01 1.3 -5.6 -4.4 00:00 20.0
01/03 14:00 1.1 -5.9 -4.8 00:00 22.0
01/03 13:59 1.0 -6.1 -5.3 00:00 24.0
01/03 13:58 1.0 -6 -5.5 00:00 26.0
01/03 13:57 1.1 -5.9 -5 00:00 30.0
01/03 13:56 1.1 -5.9 -5 00:00 28.0
01/03 13:55 1.1 -5.8 -5 00:00 20.0
01/03 13:54 1.1 -5.9 -5 00:00 14.0
01/03 13:53 1.0 -6 -5.1 00:00 14.0
01/03 13:51 0.9 -6.1 -5.4 00:00 14.0
01/03 13:50 1.0 -5.9 -4.7 00:00 14.0
01/03 13:49 1.0 -5.9 -4.5 00:00 14.0
01/03 13:48 1.0 -5.9 -4.5 00:00 20.0
01/03 13:47 1.0 -6 -4.7 00:00 28.0
01/03 13:46 1.0 -6 -4.7 00:00 24.0
01/03 13:45 1.0 -6 -4.5 00:00 16.0
01/03 13:44 0.8 -6.3 -5.1 00:00 14.0
01/03 13:43 0.7 -6.4 -5.2 00:00 12.0
01/03 13:41 0.8 -6.2 -4.9 00:00 10.0
01/03 13:40 0.9 -6.1 -4.2 00:00 10.0
01/03 13:39 0.8 -6.3 -4.5 00:00 12.0
01/03 13:38 0.8 -6.3 -4.9 00:00 10.0
01/03 13:37 0.8 -6.3 -4.7 00:00 12.0
01/03 13:36 0.8 -6.3 -5.3 00:00 12.0
01/03 13:35 0.8 -6.2 -4.9 00:00 12.0
01/03 13:34 0.8 -6.2 -4.7 00:00 12.0
01/03 13:33 0.8 -6.2 -4.9 00:00 14.0
01/03 13:32 0.7 -6.3 -4.4 00:00 12.0
01/03 13:31 0.6 -6.5 -4.3 00:00 10.0
01/03 13:30 0.6 -6.5 -4.9 00:00 10.0
01/03 13:29 0.7 -6.4 -5.2 00:00 10.0
01/03 13:28 0.8 -6.2 -4.7 00:00 12.0
01/03 13:27 0.9 -6 -5 00:00 12.0
01/03 13:26 1.0 -5.9 -4.3 00:00 12.0
01/03 13:25 0.9 -6 -4 00:00 18.0
01/03 13:24 0.8 -6.2 -4.5 00:00 24.0
01/03 13:23 0.8 -6.2 -4.9 00:00 30.0
01/03 13:22 0.9 -6 -4.8 00:00 28.0
01/03 13:21 0.9 -6 -4.6 00:00 28.0
01/03 13:20 1.0 -5.9 -4.3 00:00 26.0
01/03 13:19 0.9 -6 -4.4 00:00 22.0
01/03 13:18 0.9 -6 -4 00:00 24.0
01/03 13:17 0.8 -6.1 -4.7 00:00 22.0
01/03 13:16 0.9 -6 -4.4 00:00 24.0
01/03 13:15 0.8 -6.1 -4.3 00:00 26.0
01/03 13:14 0.7 -6.2 -4.4 00:00 24.0
01/03 13:13 0.6 -6.4 -4.5 00:00 20.0
01/03 13:12 0.7 -6.3 -4.2 00:00 18.0
01/03 13:11 0.8 -6.1 -4.1 00:00 20.0
01/03 13:10 0.8 -6.1 -4.3 00:00 18.0
01/03 13:08 0.7 -6.2 -4.2 00:00 18.0
01/03 13:07 0.6 -6.3 -4.5 00:00 24.0
01/03 13:06 0.6 -6.3 -4.3 00:00 24.0
01/03 13:05 0.7 -6.2 -4 00:00 18.0
01/03 13:04 0.8 -6.1 -3.9 00:00 14.0
01/03 13:03 0.9 -6 -4 00:00 18.0
01/03 13:02 0.9 -6 -3.8 00:00 20.0
01/03 13:01 0.8 -6.1 -4.3 00:00 22.0
01/03 12:59 1.0 -5.8 -3.9 00:00 18.0
01/03 12:56 0.8 -6.2 -4.5 00:00 28.0
01/03 12:53 0.5 -6.6 -5.2 00:00 32.0
01/03 12:50 0.8 -6.2 -3.7 00:00 20.0
01/03 12:47 0.6 -6.5 -4.5 00:00 32.0
01/03 12:44 0.5 -6.5 -4.2 00:00 20.0
01/03 12:41 0.7 -6.2 -4.2 00:00 32.0
01/03 12:38 0.7 -6.3 -4 00:00 18.0
01/03 12:35 0.7 -6.2 -4.6 00:00 20.0
01/03 12:32 0.7 -6.3 -4.4 00:00 18.0
01/03 12:29 0.6 -6.4 -4.3 00:00 22.0
01/03 12:23 0.4 -6.7 -4.5 00:00 28.0
01/03 12:20 0.4 -6.6 -4.5 00:00 26.0
01/03 12:17 0.7 -6.2 -4.2 00:00 24.0
01/03 12:14 0.5 -6.4 -5 00:00 32.0
01/03 12:11 0.8 -5.9 -3.9 00:00 16.0
01/03 12:08 0.7 -6.1 -4.2 00:00 36.0
01/03 12:07 0.5 -6.3 -4.4 00:00 44.0
01/03 12:06 0.4 -6.5 -4.7 00:00 40.0
01/03 12:05 0.6 -6.2 -4.1 00:00 36.0
01/03 12:04 0.5 -6.3 -3.7 00:00 38.0
01/03 12:03 0.5 -6.4 -3.7 00:00 38.0
01/03 12:02 0.4 -6.6 -4.1 00:00 40.0
01/03 12:01 0.6 -6.3 -4.1 00:00 46.0
01/03 11:59 0.9 -6 -3.8 00:00 28.0
01/03 11:58 0.9 -6 -4 00:00 18.0
01/03 11:57 0.8 -6.1 -3.9 00:00 22.0
01/03 11:56 0.6 -6.4 -4.7 00:00 28.0
01/03 11:55 0.6 -6.4 -4.9 00:00 38.0
01/03 11:54 0.6 -6.4 -4.7 00:00 42.0
01/03 11:53 0.6 -6.4 -5.1 00:00 38.0
01/03 11:52 0.6 -6.4 -4.9 00:00 32.0
01/03 11:51 0.6 -6.3 -4.5 00:00 30.0



    Load Time 0.018959 seconds